Time;durP1;ratioP1;P1;durP2;ratioP2;P2;SDS_P1;SDS_P2;PMS_P1;PMS_P2;Temp;Humidity;BMP_temperature;BMP_pressure;BME280_temperature;BME280_humidity;BME280_pressure;Samples;Min_cycle;Max_cycle;Signal;HPM_P1;HPM_P2
2023/02/15 00:00:14;;;;;;;1999.90;999.90;;;;;;;-0.30;100.00;99512.63;5015559;28;20483;-81
2023/02/15 00:02:39;;;;;;;1999.90;999.90;;;;;;;-0.22;100.00;99517.88;5014709;28;20049;-77
2023/02/15 00:05:05;;;;;;;1999.90;999.90;;;;;;;-0.37;100.00;99521.59;5022422;28;20029;-79
2023/02/15 00:07:31;;;;;;;1999.90;999.90;;;;;;;-0.39;100.00;99516.44;5024503;28;20110;-81
2023/02/15 00:09:56;;;;;;;1999.90;999.90;;;;;;;-0.37;100.00;99519.75;5005615;28;20468;-81
2023/02/15 00:12:22;;;;;;;1999.90;999.90;;;;;;;-0.42;100.00;99500.69;5021804;28;20050;-80
2023/02/15 00:14:47;;;;;;;1999.90;999.90;;;;;;;-0.38;100.00;99510.06;5024017;28;20030;-85
2023/02/15 00:17:13;;;;;;;1999.90;999.90;;;;;;;-0.31;100.00;99518.16;5020544;28;20056;-83
2023/02/15 00:19:39;;;;;;;1999.90;999.90;;;;;;;-0.33;100.00;99521.06;5026193;28;20066;-80
2023/02/15 00:22:05;;;;;;;1999.90;999.90;;;;;;;-0.33;100.00;99510.31;5022305;28;20390;-81
2023/02/15 00:24:31;;;;;;;1999.90;999.90;;;;;;;-0.32;100.00;99517.38;5021304;28;20030;-82
2023/02/15 00:26:57;;;;;;;1999.90;999.90;;;;;;;-0.30;100.00;99515.31;5014674;28;20037;-80
2023/02/15 00:29:22;;;;;;;1999.90;999.90;;;;;;;-0.47;100.00;99494.22;5014488;28;20026;-80
2023/02/15 00:31:48;;;;;;;1999.90;999.90;;;;;;;-0.47;100.00;99513.03;5019234;28;20033;-81
2023/02/15 00:34:18;;;;;;;1999.90;999.90;;;;;;;-0.41;100.00;99513.13;5015424;28;20475;-83
2023/02/15 00:36:44;;;;;;;1999.90;999.90;;;;;;;-0.48;100.00;99512.19;5012434;28;20079;-80
2023/02/15 00:39:11;;;;;;;1999.90;999.90;;;;;;;-0.48;100.00;99506.81;5011919;28;20049;-80
2023/02/15 00:41:36;;;;;;;1999.90;999.90;;;;;;;-0.54;100.00;99502.19;5012442;28;20179;-80
2023/02/15 00:44:02;;;;;;;1999.90;999.90;;;;;;;-0.59;100.00;99501.88;5011951;28;20006;-81
2023/02/15 00:46:27;;;;;;;1999.90;999.90;;;;;;;-0.92;100.00;99446.88;5012508;28;20077;-81
2023/02/15 00:48:53;;;;;;;1999.90;999.90;;;;;;;-0.60;100.00;99519.88;5012342;28;20544;-81
2023/02/15 00:51:20;;;;;;;1999.90;999.90;;;;;;;-0.58;100.00;99512.47;5012884;28;20033;-79
2023/02/15 00:53:46;;;;;;;1999.90;999.90;;;;;;;-0.55;100.00;99513.94;5012019;28;20689;-82
2023/02/15 00:56:11;;;;;;;1999.90;999.90;;;;;;;-0.51;100.00;99515.25;5012347;28;20089;-80
2023/02/15 00:58:37;;;;;;;1999.90;999.90;;;;;;;-0.54;100.00;99518.31;5016911;28;20032;-81
2023/02/15 01:01:06;;;;;;;1999.90;999.90;;;;;;;-0.81;100.00;99505.50;5017558;28;20026;-83
2023/02/15 01:03:32;;;;;;;1999.90;999.90;;;;;;;-0.72;100.00;99515.97;5014442;28;20018;-84
2023/02/15 01:05:57;;;;;;;1999.90;999.90;;;;;;;-0.62;100.00;99513.00;5014515;28;20506;-85
2023/02/15 01:08:22;;;;;;;1999.90;999.90;;;;;;;-0.66;100.00;99504.47;5014178;28;20018;-80
2023/02/15 01:10:49;;;;;;;1999.90;999.90;;;;;;;-0.72;100.00;99507.09;5013593;28;20117;-83
2023/02/15 01:13:15;;;;;;;1999.90;999.90;;;;;;;-0.58;100.00;99511.63;5013008;28;20030;-81
2023/02/15 01:15:41;;;;;;;1999.90;999.90;;;;;;;-0.57;100.00;99506.09;5011701;28;20080;-78
2023/02/15 01:18:07;;;;;;;1999.90;999.90;;;;;;;-0.61;100.00;99496.72;5012680;28;20041;-82
2023/02/15 01:20:36;;;;;;;1999.90;999.90;;;;;;;-0.60;100.00;99501.09;5014492;28;20390;-80
2023/02/15 01:23:02;;;;;;;1999.90;999.90;;;;;;;-0.72;100.00;99504.41;5011688;28;20030;-78
2023/02/15 01:25:27;;;;;;;1999.90;999.90;;;;;;;-0.66;100.00;99511.72;5012618;28;20048;-80
2023/02/15 01:27:52;;;;;;;1999.90;999.90;;;;;;;-0.82;100.00;99506.53;5012882;28;20061;-84
2023/02/15 01:30:18;;;;;;;1999.90;999.90;;;;;;;-0.86;100.00;99497.16;5012037;28;20116;-83
2023/02/15 01:32:43;;;;;;;1999.90;999.90;;;;;;;-0.97;100.00;99484.22;5013326;28;20032;-84
2023/02/15 01:35:10;;;;;;;1999.90;999.90;;;;;;;-0.82;100.00;99493.09;5013419;28;20463;-80
2023/02/15 01:37:35;;;;;;;1999.90;999.90;;;;;;;-0.89;100.00;99494.84;5013598;28;20434;-85
2023/02/15 01:40:03;;;;;;;1999.90;999.90;;;;;;;-0.94;100.00;99497.28;5013357;28;20048;-82
2023/02/15 01:42:29;;;;;;;1999.90;999.90;;;;;;;-1.01;100.00;99488.28;5013090;28;20034;-83
2023/02/15 01:44:59;;;;;;;1999.90;999.90;;;;;;;-0.98;100.00;99488.75;5013012;28;20356;-84
2023/02/15 01:47:34;;;;;;;1999.90;999.90;;;;;;;-0.95;100.00;99476.78;5011176;28;20037;-77
2023/02/15 01:50:20;;;;;;;1999.90;999.90;;;;;;;-0.96;100.00;99480.50;5010576;28;20037;-76
2023/02/15 01:52:50;;;;;;;1999.90;999.90;;;;;;;-1.03;100.00;99480.38;5011260;28;20053;-76
2023/02/15 01:55:16;;;;;;;1999.90;999.90;;;;;;;-1.14;100.00;99479.00;5011613;28;20052;-76
2023/02/15 01:57:45;;;;;;;1999.90;999.90;;;;;;;-1.09;100.00;99484.66;4996757;28;20093;-78
2023/02/15 02:00:11;;;;;;;1999.90;999.90;;;;;;;-1.16;100.00;99475.66;5010774;28;20036;-79
2023/02/15 02:02:37;;;;;;;1999.90;999.90;;;;;;;-1.17;100.00;99484.75;5010408;28;20076;-79
2023/02/15 02:05:06;;;;;;;1999.90;999.90;;;;;;;-1.33;100.00;99482.22;5010605;28;20022;-77
2023/02/15 02:07:35;;;;;;;1999.90;999.90;;;;;;;-1.21;100.00;99467.31;5010738;28;20455;-77
2023/02/15 02:10:02;;;;;;;1999.90;999.90;;;;;;;-1.10;100.00;99458.81;5010638;28;20026;-77
2023/02/15 02:12:28;;;;;;;1999.90;999.90;;;;;;;-1.07;100.00;99466.50;5010565;28;20117;-84
2023/02/15 02:14:54;;;;;;;1999.90;999.90;;;;;;;-1.00;100.00;99455.84;5012322;28;20057;-80
2023/02/15 02:17:51;;;;;;;1999.90;999.90;;;;;;;-1.08;100.00;99462.16;5012686;28;20030;-81
2023/02/15 02:20:34;;;;;;;1999.90;999.90;;;;;;;-1.03;100.00;99463.47;5012862;28;20041;-83
2023/02/15 02:23:21;;;;;;;1999.90;999.90;;;;;;;-1.06;100.00;99461.97;5014111;28;20025;-84
2023/02/15 02:26:08;;;;;;;1999.90;999.90;;;;;;;-1.10;100.00;99447.25;5013133;28;20517;-81
2023/02/15 02:29:00;;;;;;;1999.90;999.90;;;;;;;-1.01;100.00;99462.25;5011801;28;20049;-82
2023/02/15 02:31:56;;;;;;;1999.90;999.90;;;;;;;-1.20;100.00;99450.22;5011358;28;20510;-83
2023/02/15 02:34:50;;;;;;;1999.90;999.90;;;;;;;-1.15;100.00;99457.69;4993900;28;20037;-81
2023/02/15 02:37:30;;;;;;;1999.90;999.90;;;;;;;-1.09;100.00;99449.75;5011473;28;20081;-85
2023/02/15 02:40:18;;;;;;;1999.90;999.90;;;;;;;-1.36;100.00;99442.31;5012691;28;20069;-82
2023/02/15 02:42:59;;;;;;;1999.90;999.90;;;;;;;-1.31;100.00;99447.97;5018346;28;20045;-83
2023/02/15 02:45:46;;;;;;;1999.90;999.90;;;;;;;-1.32;100.00;99449.00;5017303;28;20030;-79
2023/02/15 02:48:27;;;;;;;1999.90;999.90;;;;;;;-1.52;100.00;99458.56;5014508;28;20108;-80
2023/02/15 02:50:53;;;;;;;1999.90;999.90;;;;;;;-1.46;100.00;99462.38;5014559;28;20038;-79
2023/02/15 02:53:18;;;;;;;1999.90;999.90;;;;;;;-1.63;100.00;99457.13;5018724;28;20030;-83
2023/02/15 02:55:53;;;;;;;1999.90;999.90;;;;;;;-1.75;100.00;99447.00;5016677;28;20405;-81
2023/02/15 02:58:30;;;;;;;1999.90;999.90;;;;;;;-1.78;100.00;99456.25;5016323;28;20026;-79
2023/02/15 03:01:19;;;;;;;1999.90;999.90;;;;;;;-1.63;100.00;99437.56;5016707;28;20058;-83
2023/02/15 03:03:53;;;;;;;1999.90;999.90;;;;;;;-1.63;100.00;99441.03;5016704;28;20025;-83
2023/02/15 03:06:27;;;;;;;1999.90;999.90;;;;;;;-1.46;100.00;99449.78;5016103;28;20030;-84
2023/02/15 03:09:04;;;;;;;1999.90;999.90;;;;;;;-1.60;100.00;99450.59;5017682;28;20060;-83
2023/02/15 03:11:30;;;;;;;1999.90;999.90;;;;;;;-1.66;100.00;99451.31;5017370;28;20101;-82
2023/02/15 03:13:56;;;;;;;1999.90;999.90;;;;;;;-1.74;100.00;99459.41;5017967;28;20101;-82
2023/02/15 03:16:27;;;;;;;1999.90;999.90;;;;;;;-1.59;100.00;99448.72;5015783;28;20037;-82
2023/02/15 03:19:05;;;;;;;1999.90;999.90;;;;;;;-1.76;100.00;99437.31;5014030;28;20028;-82
2023/02/15 03:21:57;;;;;;;1999.90;999.90;;;;;;;-1.78;100.00;99442.84;5013461;28;20025;-80
2023/02/15 03:24:28;;;;;;;1999.90;999.90;;;;;;;-1.77;100.00;99455.25;4996348;28;20487;-81
2023/02/15 03:26:55;;;;;;;1999.90;999.90;;;;;;;-1.77;100.00;99449.06;5013693;28;20017;-83
2023/02/15 03:29:25;;;;;;;1999.90;999.90;;;;;;;-1.87;100.00;99451.97;5013539;28;20045;-79
2023/02/15 03:32:03;;;;;;;1999.90;999.90;;;;;;;-1.87;100.00;99459.19;5012682;28;20032;-78
2023/02/15 03:34:29;;;;;;;1999.90;999.90;;;;;;;-1.80;100.00;99454.78;5012956;28;20112;-78
2023/02/15 03:37:09;;;;;;;1999.90;999.90;;;;;;;-1.89;100.00;99450.50;5012812;28;20014;-79
2023/02/15 03:41:09;;;;;;;1999.90;999.90;;;;;;;-1.81;100.00;99459.28;5012971;28;20049;-80
2023/02/15 03:43:00;;;;;;;1999.90;999.90;;;;;;;-1.84;100.00;99454.28;5003703;28;20041;-78
2023/02/15 03:45:30;;;;;;;1999.90;999.90;;;;;;;-1.84;100.00;99458.81;4994012;28;20034;-77
2023/02/15 03:47:58;;;;;;;1999.90;999.90;;;;;;;-1.80;100.00;99449.41;5012332;28;20022;-75
2023/02/15 03:53:17;;;;;;;1999.90;999.90;;;;;;;-1.73;100.00;99450.38;5011976;28;20048;-75
2023/02/15 03:55:47;;;;;;;1999.90;999.90;;;;;;;-1.66;100.00;99456.69;5012231;28;20044;-76
2023/02/15 04:03:56;;;;;;;1999.90;999.90;;;;;;;-1.77;100.00;99459.78;4992854;28;20088;-76
2023/02/15 04:06:21;;;;;;;1999.90;999.90;;;;;;;-1.88;100.00;99452.97;4992787;28;20058;-75
2023/02/15 04:11:30;;;;;;;1999.90;999.90;;;;;;;-1.76;100.00;99454.25;4995178;28;20104;-75
2023/02/15 04:13:56;;;;;;;1999.90;999.90;;;;;;;-1.80;100.00;99452.94;4992267;28;20475;-79
2023/02/15 04:16:25;;;;;;;1999.90;999.90;;;;;;;-1.95;100.00;99454.72;4992433;28;20073;-75
2023/02/15 04:27:04;;;;;;;1999.90;999.90;;;;;;;-1.93;100.00;99446.50;4992296;28;20093;-77
2023/02/15 04:29:30;;;;;;;1999.90;999.90;;;;;;;-2.04;100.00;99446.91;4992066;28;20073;-76
2023/02/15 04:31:57;;;;;;;1999.90;999.90;;;;;;;-1.89;100.00;99434.41;4991533;28;20439;-77
2023/02/15 04:34:23;;;;;;;1999.90;999.90;;;;;;;-1.79;100.00;99448.41;4991786;28;20030;-80
2023/02/15 04:36:50;;;;;;;1999.90;999.90;;;;;;;-1.94;100.00;99434.94;5008161;28;20045;-77
2023/02/15 04:39:16;;;;;;;1999.90;999.90;;;;;;;-1.81;100.00;99442.38;5011277;28;20038;-75
2023/02/15 04:41:42;;;;;;;1999.90;999.90;;;;;;;-1.91;100.00;99441.81;5011431;28;20033;-77
2023/02/15 04:44:08;;;;;;;1999.90;999.90;;;;;;;-1.93;100.00;99446.50;5012963;28;20089;-76
2023/02/15 04:46:33;;;;;;;1999.90;999.90;;;;;;;-2.11;100.00;99441.44;5011314;28;20034;-75
2023/02/15 04:48:58;;;;;;;1999.90;999.90;;;;;;;-1.90;100.00;99446.13;5011598;28;20521;-75
2023/02/15 04:51:24;;;;;;;1999.90;999.90;;;;;;;-1.88;100.00;99438.75;5014229;28;20120;-76
2023/02/15 04:53:52;;;;;;;1999.90;999.90;;;;;;;-1.86;100.00;99439.41;5015023;28;20038;-75
2023/02/15 04:56:18;;;;;;;1999.90;999.90;;;;;;;-1.87;100.00;99441.25;5013956;28;20024;-76
2023/02/15 04:58:43;;;;;;;1999.90;999.90;;;;;;;-1.86;100.00;99436.72;5012433;28;20054;-75
2023/02/15 05:01:09;;;;;;;1999.90;999.90;;;;;;;-1.85;100.00;99449.94;5011376;28;20105;-76
2023/02/15 05:03:35;;;;;;;1999.90;999.90;;;;;;;-1.97;100.00;99432.59;5010867;28;20036;-75
2023/02/15 05:06:00;;;;;;;1999.90;999.90;;;;;;;-1.87;100.00;99443.94;5010840;28;20030;-76
2023/02/15 05:08:26;;;;;;;1999.90;999.90;;;;;;;-1.91;100.00;99436.44;5011201;28;20026;-77
2023/02/15 05:10:51;;;;;;;1999.90;999.90;;;;;;;-1.87;100.00;99440.41;5011158;28;20099;-75
2023/02/15 05:13:18;;;;;;;1999.90;999.90;;;;;;;-1.99;100.00;99437.31;5010994;28;20026;-75
2023/02/15 05:15:52;;;;;;;1999.90;999.90;;;;;;;-2.02;100.00;99443.03;5010621;28;20116;-77
2023/02/15 05:18:20;;;;;;;1999.90;999.90;;;;;;;-2.08;100.00;99445.59;5010700;28;20386;-80
2023/02/15 05:20:46;;;;;;;1999.90;999.90;;;;;;;-2.10;100.00;99442.28;5010696;28;20040;-78
2023/02/15 05:23:12;;;;;;;1999.90;999.90;;;;;;;-2.10;100.00;99442.28;5010867;28;20029;-76
2023/02/15 05:28:24;;;;;;;1999.90;999.90;;;;;;;-2.08;100.00;99445.59;5010742;28;20048;-79
2023/02/15 05:30:58;;;;;;;1999.90;999.90;;;;;;;-2.08;100.00;99456.31;5010489;28;20038;-77
2023/02/15 05:33:23;;;;;;;1999.90;999.90;;;;;;;-2.06;100.00;99459.66;5011295;28;20034;-76
2023/02/15 05:35:49;;;;;;;1999.90;999.90;;;;;;;-1.98;100.00;99454.25;5015745;28;20024;-77
2023/02/15 05:38:14;;;;;;;1999.90;999.90;;;;;;;-1.82;100.00;99454.97;5013280;28;20482;-77
2023/02/15 05:40:39;;;;;;;1999.90;999.90;;;;;;;-1.78;100.00;99453.56;5012252;28;20056;-79
2023/02/15 05:43:05;;;;;;;1999.90;999.90;;;;;;;-1.61;100.00;99456.97;5010517;28;20426;-80
2023/02/15 05:45:30;;;;;;;1999.90;999.90;;;;;;;-1.69;100.00;99468.59;5010309;28;20049;-76
2023/02/15 05:47:57;;;;;;;1999.90;999.90;;;;;;;-1.59;100.00;99473.69;5010500;28;20030;-76
2023/02/15 05:50:23;;;;;;;1999.90;999.90;;;;;;;-1.66;100.00;99464.75;5010287;28;20104;-78
2023/02/15 05:52:48;;;;;;;1999.90;999.90;;;;;;;-1.47;100.00;99468.75;5010640;28;20120;-78
2023/02/15 05:55:14;;;;;;;1999.90;999.90;;;;;;;-1.42;100.00;99461.00;5010801;28;20030;-78
2023/02/15 05:57:39;;;;;;;1999.90;999.90;;;;;;;-1.45;100.00;99462.19;5010014;28;20057;-76
2023/02/15 06:00:06;;;;;;;1999.90;999.90;;;;;;;-1.51;100.00;99451.34;4996593;28;20022;-82
2023/02/15 06:02:35;;;;;;;1999.90;999.90;;;;;;;-1.51;100.00;99470.97;5021925;28;20086;-83
2023/02/15 06:05:01;;;;;;;1999.90;999.90;;;;;;;-1.52;100.00;99479.19;5024306;28;20030;-84
2023/02/15 06:07:26;;;;;;;1999.90;999.90;;;;;;;-1.56;100.00;99459.09;5020945;28;20387;-84
2023/02/15 06:09:52;;;;;;;1999.90;999.90;;;;;;;-1.52;100.00;99477.34;5021578;28;20026;-80
2023/02/15 06:12:17;;;;;;;1999.90;999.90;;;;;;;-1.36;100.00;99471.84;5020740;28;20026;-83
2023/02/15 06:14:42;;;;;;;1999.90;999.90;;;;;;;-1.32;100.00;99475.00;5023517;28;20018;-84
2023/02/15 06:17:08;;;;;;;1999.90;999.90;;;;;;;-1.29;100.00;99475.47;5025492;28;20026;-77
2023/02/15 06:19:33;;;;;;;1999.90;999.90;;;;;;;-1.24;100.00;99482.97;4980345;28;20154;-77
2023/02/15 06:21:59;;;;;;;1999.90;999.90;;;;;;;-1.24;100.00;99467.69;5015708;28;20032;-84
2023/02/15 06:24:24;;;;;;;1999.90;999.90;;;;;;;-1.26;100.00;99472.41;5014502;28;20053;-82
2023/02/15 06:26:49;;;;;;;1999.90;999.90;;;;;;;-1.41;100.00;99466.16;5011121;28;20017;-78
2023/02/15 06:29:15;;;;;;;1999.90;999.90;;;;;;;-1.20;100.00;99490.47;5011407;28;20021;-76
2023/02/15 06:31:40;;;;;;;1999.90;999.90;;;;;;;-1.10;100.00;99482.16;4994183;28;20030;-78
2023/02/15 06:34:06;;;;;;;1999.90;999.90;;;;;;;-1.10;100.00;99491.03;5011709;28;20022;-76
2023/02/15 06:36:31;;;;;;;1999.90;999.90;;;;;;;-1.19;100.00;99480.56;5012461;28;20030;-75
2023/02/15 06:38:57;;;;;;;1999.90;999.90;;;;;;;-1.13;100.00;99486.03;5012649;28;20061;-75
2023/02/15 06:41:23;;;;;;;1999.90;999.90;;;;;;;-1.22;100.00;99487.13;5011965;28;20021;-76
2023/02/15 06:43:48;;;;;;;1999.90;999.90;;;;;;;-1.13;100.00;99479.84;5013195;28;20018;-78
2023/02/15 06:46:14;;;;;;;1999.90;999.90;;;;;;;-1.03;100.00;99491.13;5013000;28;20080;-77
2023/02/15 06:48:39;;;;;;;1999.90;999.90;;;;;;;-1.18;100.00;99485.75;5016455;28;20030;-78
2023/02/15 06:51:04;;;;;;;1999.90;999.90;;;;;;;-1.17;100.00;99484.75;5013726;28;20125;-80
2023/02/15 06:53:30;;;;;;;1999.90;999.90;;;;;;;-1.08;100.00;99491.69;5013688;28;20533;-79
2023/02/15 06:56:02;;;;;;;1999.90;999.90;;;;;;;-0.94;100.00;99499.94;5013825;28;20419;-77
2023/02/15 06:58:28;;;;;;;1999.90;999.90;;;;;;;-1.09;100.00;99492.69;5013942;28;20022;-78
2023/02/15 07:00:53;;;;;;;1999.90;999.90;;;;;;;-1.03;100.00;99490.31;5014700;28;20022;-81
2023/02/15 07:03:19;;;;;;;1999.90;999.90;;;;;;;-1.05;100.00;99489.66;5016566;28;20014;-78
2023/02/15 07:05:45;;;;;;;1999.90;999.90;;;;;;;-1.01;100.00;99489.13;5014122;28;20021;-79
2023/02/15 07:08:10;;;;;;;1999.90;999.90;;;;;;;-0.94;100.00;99489.22;4996111;28;20077;-81
2023/02/15 07:10:36;;;;;;;1999.90;999.90;;;;;;;-0.84;100.00;99495.97;5013263;28;20109;-80
2023/02/15 07:13:01;;;;;;;1999.90;999.90;;;;;;;-0.77;100.00;99488.00;5013064;28;20026;-80
2023/02/15 07:15:26;;;;;;;1999.90;999.90;;;;;;;-0.67;100.00;99492.09;5012696;28;20384;-78
2023/02/15 07:17:52;;;;;;;1999.90;999.90;;;;;;;-0.60;100.00;99498.41;5013237;28;20037;-77
2023/02/15 07:20:22;;;;;;;1999.90;999.90;;;;;;;-0.63;100.00;99493.34;4996014;28;20036;-78
2023/02/15 07:22:48;;;;;;;1999.90;999.90;;;;;;;-0.66;100.00;99488.38;5014659;28;20078;-80
2023/02/15 07:25:14;;;;;;;1999.90;999.90;;;;;;;-0.64;100.00;99490.88;5014676;28;20022;-83
2023/02/15 07:27:40;;;;;;;1999.90;999.90;;;;;;;-0.67;100.00;99496.63;5015605;28;20474;-79
2023/02/15 07:30:08;;;;;;;1999.90;999.90;;;;;;;-0.66;100.00;99491.03;5016019;28;20033;-83
2023/02/15 07:32:34;;;;;;;1999.90;999.90;;;;;;;-0.85;100.00;99493.47;5014667;28;20026;-76
2023/02/15 07:35:00;;;;;;;1999.90;999.90;;;;;;;-0.80;100.00;99486.53;5013897;28;20030;-76
2023/02/15 07:37:26;;;;;;;1999.90;999.90;;;;;;;-0.88;100.00;99500.06;4995936;28;20449;-77
2023/02/15 07:39:52;;;;;;;1999.90;999.90;;;;;;;-0.80;100.00;99486.53;4993986;28;20038;-77
2023/02/15 07:42:19;;;;;;;1999.90;999.90;;;;;;;-0.80;100.00;99496.44;4975794;28;20125;-79
2023/02/15 07:44:45;;;;;;;1999.90;999.90;;;;;;;-0.75;100.00;99494.03;4975915;28;20026;-80
2023/02/15 07:47:11;;;;;;;1999.90;999.90;;;;;;;-0.68;100.00;99493.09;4992828;28;20092;-77
2023/02/15 07:49:36;;;;;;;1999.90;999.90;;;;;;;-0.66;100.00;99490.25;4992729;28;20077;-77
2023/02/15 07:52:01;;;;;;;1999.90;999.90;;;;;;;-0.62;100.00;99488.81;4975523;28;20034;-79
2023/02/15 07:54:27;;;;;;;1999.90;999.90;;;;;;;-0.62;100.00;99483.47;4975165;28;20022;-82
2023/02/15 07:56:52;;;;;;;1999.90;999.90;;;;;;;-0.58;100.00;99476.69;4993331;28;20031;-80
2023/02/15 07:59:18;;;;;;;1999.90;999.90;;;;;;;-0.42;100.00;99479.19;4992648;28;20455;-80
2023/02/15 08:01:43;;;;;;;1999.90;999.90;;;;;;;-0.33;100.00;99475.38;4993018;28;20026;-80
2023/02/15 08:04:10;;;;;;;1999.90;999.90;;;;;;;-0.12;100.00;99488.84;4993072;28;20114;-81
2023/02/15 08:06:37;;;;;;;1999.90;999.90;;;;;;;-0.01;100.00;99483.00;4993055;28;20026;-80
2023/02/15 08:09:07;;;;;;;1999.90;999.90;;;;;;;-0.08;100.00;99482.09;4993177;28;20053;-82
2023/02/15 08:11:39;;;;;;;1999.90;999.90;;;;;;;0.11;100.00;99485.16;4993162;28;20047;-80
2023/02/15 08:14:07;;;;;;;1999.90;999.90;;;;;;;0.21;100.00;99480.31;4993075;28;20061;-81
2023/02/15 08:16:35;;;;;;;1999.90;999.90;;;;;;;0.38;100.00;99481.72;4993213;28;20026;-80
2023/02/15 08:19:10;;;;;;;1999.90;999.90;;;;;;;0.30;100.00;99465.72;4993969;28;20048;-80
2023/02/15 08:21:39;;;;;;;1999.90;999.90;;;;;;;0.42;100.00;99474.94;4995632;28;20076;-81
2023/02/15 08:24:05;;;;;;;1999.90;999.90;;;;;;;0.52;100.00;99470.91;4995077;28;20091;-82
2023/02/15 08:26:32;;;;;;;1999.90;999.90;;;;;;;0.49;100.00;99476.69;4986644;28;20111;-80
2023/02/15 08:28:58;;;;;;;1999.90;999.90;;;;;;;0.42;100.00;99467.69;4994703;28;20466;-82
2023/02/15 08:31:24;;;;;;;1999.90;999.90;;;;;;;0.56;100.00;99474.03;4992622;28;20476;-83
2023/02/15 08:33:52;;;;;;;1999.90;999.90;;;;;;;0.71;100.00;99466.72;4992794;28;20025;-80
2023/02/15 08:36:20;;;;;;;1999.90;999.90;;;;;;;0.89;100.00;99468.91;4993432;28;20207;-81
2023/02/15 08:38:46;;;;;;;1999.90;999.90;;;;;;;0.96;100.00;99465.25;4992383;28;20054;-83
2023/02/15 08:41:21;;;;;;;1999.90;999.90;;;;;;;1.06;100.00;99459.50;4992731;28;20029;-83
2023/02/15 08:43:49;;;;;;;1999.90;999.90;;;;;;;1.25;100.00;99463.34;4975628;28;20519;-82
2023/02/15 08:46:15;;;;;;;1999.90;999.90;;;;;;;1.74;100.00;99464.00;4993136;28;20094;-83
2023/02/15 08:48:41;;;;;;;1999.90;999.90;;;;;;;1.65;100.00;99472.47;4992847;28;20033;-81
2023/02/15 08:51:12;;;;;;;1999.90;999.90;;;;;;;1.43;100.00;99469.06;4992687;28;20026;-82
2023/02/15 08:53:39;;;;;;;1999.90;999.90;;;;;;;1.26;100.00;99454.22;4992875;28;20033;-79
2023/02/15 08:56:06;;;;;;;1999.90;999.90;;;;;;;1.26;100.00;99462.31;4992987;28;20035;-82
2023/02/15 08:58:32;;;;;;;1999.90;999.90;;;;;;;1.38;100.00;99464.25;4992960;28;20419;-82
2023/02/15 09:00:58;;;;;;;1999.90;999.90;;;;;;;1.61;100.00;99472.03;4992732;28;20110;-84
2023/02/15 09:03:23;;;;;;;1999.90;999.90;;;;;;;1.55;100.00;99465.59;4992793;28;20546;-81
2023/02/15 09:05:49;;;;;;;1999.90;999.90;;;;;;;1.63;100.00;99478.06;4993432;28;20514;-81
2023/02/15 09:08:15;;;;;;;1999.90;999.90;;;;;;;1.66;100.00;99477.66;4993140;28;20027;-81
2023/02/15 09:10:41;;;;;;;1999.90;999.90;;;;;;;1.38;100.00;99463.44;4992942;28;20065;-83
2023/02/15 09:13:06;;;;;;;1999.90;999.90;;;;;;;1.13;100.00;99468.44;4978468;28;20081;-82
2023/02/15 09:15:32;;;;;;;1999.90;999.90;;;;;;;1.39;100.00;99473.16;4993747;28;20073;-82
2023/02/15 09:18:01;;;;;;;1999.90;999.90;;;;;;;1.44;100.00;99473.41;4992748;28;20046;-80
2023/02/15 09:20:27;;;;;;;1999.90;999.90;;;;;;;1.48;100.00;99480.06;4976697;28;20034;-80
2023/02/15 09:22:54;;;;;;;1999.90;999.90;;;;;;;1.50;100.00;99468.03;4975311;28;20113;-81
2023/02/15 09:25:21;;;;;;;1999.90;999.90;;;;;;;1.44;100.00;99476.13;4992445;28;20035;-81
2023/02/15 09:27:46;;;;;;;1999.90;999.90;;;;;;;1.46;100.00;99471.34;4992097;28;20085;-81
2023/02/15 09:30:12;;;;;;;1999.90;999.90;;;;;;;1.50;100.00;99454.56;4992738;28;20023;-81
2023/02/15 09:32:38;;;;;;;1999.90;999.90;;;;;;;1.81;100.00;99459.47;4992069;28;20034;-84
2023/02/15 09:35:03;;;;;;;1999.90;999.90;;;;;;;1.87;100.00;99474.03;4992305;28;20026;-82
2023/02/15 09:37:31;;;;;;;1999.90;999.90;;;;;;;2.02;100.00;99456.63;4992546;28;20022;-82
2023/02/15 09:39:57;;;;;;;1999.90;999.90;;;;;;;2.38;100.00;99467.06;4991912;28;21533;-81
2023/02/15 09:42:47;;;;;;;1999.90;999.90;;;;;;;2.68;100.00;99460.28;4992072;28;20187;-80
2023/02/15 09:45:42;;;;;;;1999.90;999.90;;;;;;;2.75;100.00;99459.44;4991967;28;20045;-80
2023/02/15 09:48:38;;;;;;;1999.90;999.90;;;;;;;3.01;100.00;99457.53;4966658;28;20096;-82
2023/02/15 09:51:18;;;;;;;1999.90;999.90;;;;;;;3.10;100.00;99455.47;4991444;28;20476;-84
2023/02/15 09:54:05;;;;;;;1999.90;999.90;;;;;;;3.24;100.00;99452.53;4977735;28;20038;-83
2023/02/15 09:56:37;;;;;;;1999.90;999.90;;;;;;;2.98;100.00;99455.25;4993185;28;20486;-80
2023/02/15 09:59:17;;;;;;;1999.90;999.90;;;;;;;3.00;100.00;99461.31;4993430;28;20034;-78
2023/02/15 10:01:45;;;;;;;1999.90;999.90;;;;;;;3.09;100.00;99448.41;4993085;28;20125;-83
2023/02/15 10:04:26;;;;;;;1999.90;999.90;;;;;;;3.25;100.00;99453.34;4993343;28;20402;-83
2023/02/15 10:07:03;;;;;;;1999.90;999.90;;;;;;;3.44;100.00;99457.06;4994043;28;20049;-81
2023/02/15 10:09:37;;;;;;;1999.90;999.90;;;;;;;3.24;100.00;99457.94;4992794;28;20035;-84
2023/02/15 10:12:23;;;;;;;1999.90;999.90;;;;;;;3.62;100.00;99452.63;4993255;28;20034;-82
2023/02/15 10:15:16;;;;;;;1999.90;999.90;;;;;;;3.67;100.00;99447.38;4993705;28;20085;-82
2023/02/15 10:18:17;;;;;;;1999.90;999.90;;;;;;;3.91;100.00;99443.13;4995971;28;20030;-83
2023/02/15 10:20:59;;;;;;;1999.90;999.90;;;;;;;3.85;100.00;99432.34;4994352;28;20432;-82
2023/02/15 10:23:34;;;;;;;1999.90;999.90;;;;;;;4.25;100.00;99445.44;4995031;28;20034;-80
2023/02/15 10:26:19;;;;;;;1999.90;999.90;;;;;;;4.55;100.00;99447.50;4994965;28;20515;-84
2023/02/15 10:29:00;;;;;;;1999.90;999.90;;;;;;;4.81;100.00;99448.16;4994865;28;20169;-81
2023/02/15 10:31:47;;;;;;;1999.90;999.90;;;;;;;4.81;100.00;99444.59;4994259;28;20121;-83
2023/02/15 10:34:27;;;;;;;1999.90;999.90;;;;;;;4.92;100.00;99441.16;4993498;28;20510;-86
2023/02/15 10:37:40;;;;;;;1999.90;999.90;;;;;;;4.93;100.00;99425.72;5005055;28;20525;-83
2023/02/15 10:40:27;;;;;;;1999.90;999.90;;;;;;;5.20;100.00;99427.97;5012910;28;20060;-80
2023/02/15 10:43:18;;;;;;;1999.90;999.90;;;;;;;6.70;100.00;99428.94;5013711;28;20025;-83
2023/02/15 10:45:49;;;;;;;1999.90;999.90;;;;;;;6.64;100.00;99427.16;5015042;28;20026;-86
2023/02/15 10:48:17;;;;;;;1999.90;999.90;;;;;;;7.65;100.00;99429.50;5014161;28;20056;-88
2023/02/15 10:51:01;;;;;;;1999.90;999.90;;;;;;;7.90;100.00;99425.41;5013421;28;20483;-88
2023/02/15 10:53:39;;;;;;;1999.90;999.90;;;;;;;9.23;96.54;99427.53;5014806;28;20129;-86
2023/02/15 10:56:35;;;;;;;1999.90;999.90;;;;;;;10.01;88.25;99421.75;5016041;28;20030;-83
2023/02/15 10:59:18;;;;;;;1999.90;999.90;;;;;;;10.13;86.54;99418.88;5016846;28;20034;-85
2023/02/15 11:01:51;;;;;;;1999.90;999.90;;;;;;;10.73;79.59;99418.69;5018959;28;20743;-89
2023/02/15 11:04:16;;;;;;;1999.90;999.90;;;;;;;9.84;81.37;99420.16;5022388;28;20034;-83
2023/02/15 11:06:51;;;;;;;1999.90;999.90;;;;;;;10.13;79.97;99403.34;5023337;28;20018;-86
2023/02/15 11:09:20;;;;;;;1999.90;999.90;;;;;;;10.86;76.23;99411.97;5023723;28;20037;-86
2023/02/15 11:11:50;;;;;;;1999.90;999.90;;;;;;;8.83;82.19;99407.78;5006413;28;20613;-87
2023/02/15 11:14:41;;;;;;;1999.90;999.90;;;;;;;10.65;73.82;99405.50;5022589;28;20026;-83
2023/02/15 11:17:12;;;;;;;1999.90;999.90;;;;;;;10.76;72.71;99385.34;5022222;28;20497;-91
2023/02/15 11:19:48;;;;;;;1999.90;999.90;;;;;;;11.03;72.33;99391.56;5006078;28;20029;-80
2023/02/15 11:22:14;;;;;;;1999.90;999.90;;;;;;;11.69;68.30;99390.03;5006859;28;20029;-85
2023/02/15 11:24:45;;;;;;;1999.90;999.90;;;;;;;11.16;69.92;99373.84;5022533;28;20105;-86